sensor_id;sensor_type;location;lat;lon;timestamp;temperature;humidity
48946;DHT22;34999;50.940;3.998;2023-02-01T00:01:27;6.20;99.90
48946;DHT22;34999;50.940;3.998;2023-02-01T00:03:55;6.20;99.90
48946;DHT22;34999;50.940;3.998;2023-02-01T00:06:24;6.20;99.90
48946;DHT22;34999;50.940;3.998;2023-02-01T00:08:52;6.20;99.90
48946;DHT22;34999;50.940;3.998;2023-02-01T00:11:22;6.20;99.90
48946;DHT22;34999;50.940;3.998;2023-02-01T00:13:51;6.20;99.90
48946;DHT22;34999;50.940;3.998;2023-02-01T00:16:23;6.20;99.90
48946;DHT22;34999;50.940;3.998;2023-02-01T00:18:57;6.30;99.90
48946;DHT22;34999;50.940;3.998;2023-02-01T00:21:27;6.30;99.90
48946;DHT22;34999;50.940;3.998;2023-02-01T00:23:55;6.30;99.90
48946;DHT22;34999;50.940;3.998;2023-02-01T00:26:27;6.30;99.90
48946;DHT22;34999;50.940;3.998;2023-02-01T00:28:58;6.30;99.90
48946;DHT22;34999;50.940;3.998;2023-02-01T00:31:28;6.20;99.90
48946;DHT22;34999;50.940;3.998;2023-02-01T00:33:56;6.20;99.90
48946;DHT22;34999;50.940;3.998;2023-02-01T00:36:25;6.20;99.90
48946;DHT22;34999;50.940;3.998;2023-02-01T00:38:53;6.20;99.90
48946;DHT22;34999;50.940;3.998;2023-02-01T00:41:22;6.20;99.90
48946;DHT22;34999;50.940;3.998;2023-02-01T00:43:50;6.20;99.90
48946;DHT22;34999;50.940;3.998;2023-02-01T00:46:19;6.20;99.90
48946;DHT22;34999;50.940;3.998;2023-02-01T00:48:49;6.30;99.90
48946;DHT22;34999;50.940;3.998;2023-02-01T00:51:20;6.30;99.90
48946;DHT22;34999;50.940;3.998;2023-02-01T00:53:48;6.40;99.90
48946;DHT22;34999;50.940;3.998;2023-02-01T00:56:17;6.30;99.90
48946;DHT22;34999;50.940;3.998;2023-02-01T00:58:46;6.20;99.90
48946;DHT22;34999;50.940;3.998;2023-02-01T01:01:16;6.20;99.90
48946;DHT22;34999;50.940;3.998;2023-02-01T01:03:47;6.20;99.90
48946;DHT22;34999;50.940;3.998;2023-02-01T01:06:20;6.10;99.90
48946;DHT22;34999;50.940;3.998;2023-02-01T01:08:51;6.00;99.90
48946;DHT22;34999;50.940;3.998;2023-02-01T01:11:22;5.90;99.90
48946;DHT22;34999;50.940;3.998;2023-02-01T01:13:53;5.80;99.90
48946;DHT22;34999;50.940;3.998;2023-02-01T01:16:23;5.80;99.90
48946;DHT22;34999;50.940;3.998;2023-02-01T01:18:52;5.80;99.90
48946;DHT22;34999;50.940;3.998;2023-02-01T01:21:22;5.80;99.90
48946;DHT22;34999;50.940;3.998;2023-02-01T01:23:51;5.70;99.90
48946;DHT22;34999;50.940;3.998;2023-02-01T01:26:21;5.60;99.90
48946;DHT22;34999;50.940;3.998;2023-02-01T01:28:50;5.60;99.90
48946;DHT22;34999;50.940;3.998;2023-02-01T01:31:19;5.50;99.90
48946;DHT22;34999;50.940;3.998;2023-02-01T01:33:49;5.50;99.90
48946;DHT22;34999;50.940;3.998;2023-02-01T01:36:18;5.40;99.90
48946;DHT22;34999;50.940;3.998;2023-02-01T01:38:48;5.40;99.90
48946;DHT22;34999;50.940;3.998;2023-02-01T01:41:18;5.30;99.90
48946;DHT22;34999;50.940;3.998;2023-02-01T01:43:53;5.30;99.90
48946;DHT22;34999;50.940;3.998;2023-02-01T01:46:23;5.20;99.90
48946;DHT22;34999;50.940;3.998;2023-02-01T01:48:59;5.20;99.90
48946;DHT22;34999;50.940;3.998;2023-02-01T01:51:31;5.10;99.90
48946;DHT22;34999;50.940;3.998;2023-02-01T01:54:04;5.00;99.90
48946;DHT22;34999;50.940;3.998;2023-02-01T01:56:34;4.90;99.90
48946;DHT22;34999;50.940;3.998;2023-02-01T01:59:04;4.90;99.90
48946;DHT22;34999;50.940;3.998;2023-02-01T02:01:33;4.90;99.90
48946;DHT22;34999;50.940;3.998;2023-02-01T02:04:01;4.90;99.90
48946;DHT22;34999;50.940;3.998;2023-02-01T02:06:37;4.90;99.90
48946;DHT22;34999;50.940;3.998;2023-02-01T02:09:08;4.90;99.90
48946;DHT22;34999;50.940;3.998;2023-02-01T02:11:36;4.90;99.90
48946;DHT22;34999;50.940;3.998;2023-02-01T02:14:06;5.00;99.90
48946;DHT22;34999;50.940;3.998;2023-02-01T02:16:46;5.10;99.90
48946;DHT22;34999;50.940;3.998;2023-02-01T02:20:01;5.10;99.90
48946;DHT22;34999;50.940;3.998;2023-02-01T02:23:08;5.20;99.90
48946;DHT22;34999;50.940;3.998;2023-02-01T02:26:17;5.30;99.90
48946;DHT22;34999;50.940;3.998;2023-02-01T02:32:04;5.40;99.90
48946;DHT22;34999;50.940;3.998;2023-02-01T02:34:39;5.40;99.90
48946;DHT22;34999;50.940;3.998;2023-02-01T02:37:16;5.30;99.90
48946;DHT22;34999;50.940;3.998;2023-02-01T02:39:50;5.30;99.90
48946;DHT22;34999;50.940;3.998;2023-02-01T02:42:27;5.20;99.90
48946;DHT22;34999;50.940;3.998;2023-02-01T02:45:18;5.20;99.90
48946;DHT22;34999;50.940;3.998;2023-02-01T02:48:11;5.20;99.90
48946;DHT22;34999;50.940;3.998;2023-02-01T02:50:45;5.10;99.90
48946;DHT22;34999;50.940;3.998;2023-02-01T02:53:34;5.20;99.90
48946;DHT22;34999;50.940;3.998;2023-02-01T02:56:23;5.20;99.90
48946;DHT22;34999;50.940;3.998;2023-02-01T02:59:12;5.20;99.90
48946;DHT22;34999;50.940;3.998;2023-02-01T03:01:59;5.20;99.90
48946;DHT22;34999;50.940;3.998;2023-02-01T03:04:52;5.20;99.90
48946;DHT22;34999;50.940;3.998;2023-02-01T03:07:48;5.30;99.90
48946;DHT22;34999;50.940;3.998;2023-02-01T03:10:24;5.40;99.90
48946;DHT22;34999;50.940;3.998;2023-02-01T03:12:55;5.30;99.90
48946;DHT22;34999;50.940;3.998;2023-02-01T03:15:35;5.30;99.90
48946;DHT22;34999;50.940;3.998;2023-02-01T03:18:09;5.30;99.90
48946;DHT22;34999;50.940;3.998;2023-02-01T03:20:40;5.30;99.90
48946;DHT22;34999;50.940;3.998;2023-02-01T03:23:16;5.30;99.90
48946;DHT22;34999;50.940;3.998;2023-02-01T03:25:47;5.30;99.90
48946;DHT22;34999;50.940;3.998;2023-02-01T03:28:17;5.20;99.90
48946;DHT22;34999;50.940;3.998;2023-02-01T03:30:51;5.20;99.90
48946;DHT22;34999;50.940;3.998;2023-02-01T03:33:22;5.20;99.90
48946;DHT22;34999;50.940;3.998;2023-02-01T03:35:57;5.20;99.90
48946;DHT22;34999;50.940;3.998;2023-02-01T03:38:32;5.20;99.90
48946;DHT22;34999;50.940;3.998;2023-02-01T03:41:11;5.20;99.90
48946;DHT22;34999;50.940;3.998;2023-02-01T03:43:50;5.30;99.90
48946;DHT22;34999;50.940;3.998;2023-02-01T03:46:27;5.20;99.90
48946;DHT22;34999;50.940;3.998;2023-02-01T03:49:02;5.20;99.90
48946;DHT22;34999;50.940;3.998;2023-02-01T03:51:36;5.10;99.90
48946;DHT22;34999;50.940;3.998;2023-02-01T03:54:10;5.10;99.90
48946;DHT22;34999;50.940;3.998;2023-02-01T03:56:43;5.10;99.90
48946;DHT22;34999;50.940;3.998;2023-02-01T03:59:13;5.00;99.90
48946;DHT22;34999;50.940;3.998;2023-02-01T04:01:42;5.00;99.90
48946;DHT22;34999;50.940;3.998;2023-02-01T04:04:10;5.00;99.90
48946;DHT22;34999;50.940;3.998;2023-02-01T04:06:47;5.00;99.90
48946;DHT22;34999;50.940;3.998;2023-02-01T04:09:17;5.00;99.90
48946;DHT22;34999;50.940;3.998;2023-02-01T04:11:45;5.00;99.90
48946;DHT22;34999;50.940;3.998;2023-02-01T04:14:54;5.00;99.90
48946;DHT22;34999;50.940;3.998;2023-02-01T04:18:02;4.90;99.90
48946;DHT22;34999;50.940;3.998;2023-02-01T04:21:11;4.90;99.90
48946;DHT22;34999;50.940;3.998;2023-02-01T04:24:20;4.80;99.90
48946;DHT22;34999;50.940;3.998;2023-02-01T04:27:29;4.70;99.90
48946;DHT22;34999;50.940;3.998;2023-02-01T04:30:37;4.70;99.90
48946;DHT22;34999;50.940;3.998;2023-02-01T04:33:46;4.70;99.90
48946;DHT22;34999;50.940;3.998;2023-02-01T04:36:54;4.60;99.90
48946;DHT22;34999;50.940;3.998;2023-02-01T04:40:05;4.60;99.90
48946;DHT22;34999;50.940;3.998;2023-02-01T04:43:14;4.50;99.90
48946;DHT22;34999;50.940;3.998;2023-02-01T04:46:23;4.50;99.90
48946;DHT22;34999;50.940;3.998;2023-02-01T04:49:31;4.60;99.90
48946;DHT22;34999;50.940;3.998;2023-02-01T04:52:40;4.50;99.90
48946;DHT22;34999;50.940;3.998;2023-02-01T04:55:49;4.50;99.90
48946;DHT22;34999;50.940;3.998;2023-02-01T04:58:58;4.50;99.90
48946;DHT22;34999;50.940;3.998;2023-02-01T05:02:06;4.50;99.90
48946;DHT22;34999;50.940;3.998;2023-02-01T05:05:15;4.50;99.90
48946;DHT22;34999;50.940;3.998;2023-02-01T05:08:24;4.50;99.90
48946;DHT22;34999;50.940;3.998;2023-02-01T05:11:35;4.40;99.90
48946;DHT22;34999;50.940;3.998;2023-02-01T05:15:17;4.40;99.90
48946;DHT22;34999;50.940;3.998;2023-02-01T05:18:26;4.40;99.90
48946;DHT22;34999;50.940;3.998;2023-02-01T05:21:35;4.50;99.90
48946;DHT22;34999;50.940;3.998;2023-02-01T05:24:43;4.50;99.90
48946;DHT22;34999;50.940;3.998;2023-02-01T05:27:53;4.40;99.90
48946;DHT22;34999;50.940;3.998;2023-02-01T05:31:09;4.50;99.90
48946;DHT22;34999;50.940;3.998;2023-02-01T05:34:17;4.50;99.90
48946;DHT22;34999;50.940;3.998;2023-02-01T05:37:26;4.50;99.90
48946;DHT22;34999;50.940;3.998;2023-02-01T05:40:34;4.50;99.90
48946;DHT22;34999;50.940;3.998;2023-02-01T05:43:10;4.40;99.90
48946;DHT22;34999;50.940;3.998;2023-02-01T05:45:38;4.40;99.90
48946;DHT22;34999;50.940;3.998;2023-02-01T05:48:07;4.40;99.90
48946;DHT22;34999;50.940;3.998;2023-02-01T05:50:35;4.40;99.90
48946;DHT22;34999;50.940;3.998;2023-02-01T05:53:04;4.40;99.90
48946;DHT22;34999;50.940;3.998;2023-02-01T05:55:32;4.40;99.90
48946;DHT22;34999;50.940;3.998;2023-02-01T05:58:01;4.40;99.90
48946;DHT22;34999;50.940;3.998;2023-02-01T06:00:30;4.30;99.90
48946;DHT22;34999;50.940;3.998;2023-02-01T06:02:59;4.30;99.90
48946;DHT22;34999;50.940;3.998;2023-02-01T06:05:28;4.20;99.90
48946;DHT22;34999;50.940;3.998;2023-02-01T06:07:57;4.20;99.90
48946;DHT22;34999;50.940;3.998;2023-02-01T06:10:25;4.30;99.90
48946;DHT22;34999;50.940;3.998;2023-02-01T06:12:54;4.30;99.90
48946;DHT22;34999;50.940;3.998;2023-02-01T06:15:22;4.20;99.90
48946;DHT22;34999;50.940;3.998;2023-02-01T06:17:52;4.20;99.90
48946;DHT22;34999;50.940;3.998;2023-02-01T06:20:21;4.20;99.90
48946;DHT22;34999;50.940;3.998;2023-02-01T06:22:50;4.20;99.90
48946;DHT22;34999;50.940;3.998;2023-02-01T06:25:22;4.20;99.90
48946;DHT22;34999;50.940;3.998;2023-02-01T06:27:50;4.20;99.90
48946;DHT22;34999;50.940;3.998;2023-02-01T06:30:18;4.30;99.90
48946;DHT22;34999;50.940;3.998;2023-02-01T06:32:51;4.30;99.90
48946;DHT22;34999;50.940;3.998;2023-02-01T06:35:21;4.20;99.90
48946;DHT22;34999;50.940;3.998;2023-02-01T06:37:49;4.20;99.90
48946;DHT22;34999;50.940;3.998;2023-02-01T06:40:19;4.10;99.90
48946;DHT22;34999;50.940;3.998;2023-02-01T06:42:48;4.20;99.90
48946;DHT22;34999;50.940;3.998;2023-02-01T06:45:16;4.20;99.90
48946;DHT22;34999;50.940;3.998;2023-02-01T06:47:45;4.20;99.90
48946;DHT22;34999;50.940;3.998;2023-02-01T06:50:15;4.20;99.90
48946;DHT22;34999;50.940;3.998;2023-02-01T06:52:44;4.20;99.90
48946;DHT22;34999;50.940;3.998;2023-02-01T06:55:12;4.20;99.90
48946;DHT22;34999;50.940;3.998;2023-02-01T06:57:40;4.20;99.90
48946;DHT22;34999;50.940;3.998;2023-02-01T07:00:10;4.20;99.90
48946;DHT22;34999;50.940;3.998;2023-02-01T07:02:38;4.20;99.90
48946;DHT22;34999;50.940;3.998;2023-02-01T07:05:07;4.20;99.90
48946;DHT22;34999;50.940;3.998;2023-02-01T07:07:37;4.10;99.90
48946;DHT22;34999;50.940;3.998;2023-02-01T07:10:05;4.10;99.90
48946;DHT22;34999;50.940;3.998;2023-02-01T07:12:34;4.10;99.90
48946;DHT22;34999;50.940;3.998;2023-02-01T07:15:03;4.20;99.90
48946;DHT22;34999;50.940;3.998;2023-02-01T07:17:31;4.20;99.90
48946;DHT22;34999;50.940;3.998;2023-02-01T07:19:59;4.20;99.90
48946;DHT22;34999;50.940;3.998;2023-02-01T07:22:28;4.20;99.90
48946;DHT22;34999;50.940;3.998;2023-02-01T07:24:58;4.20;99.90
48946;DHT22;34999;50.940;3.998;2023-02-01T07:27:26;4.20;99.90
48946;DHT22;34999;50.940;3.998;2023-02-01T07:29:54;4.20;99.90
48946;DHT22;34999;50.940;3.998;2023-02-01T07:32:23;4.20;99.90
48946;DHT22;34999;50.940;3.998;2023-02-01T07:34:51;4.20;99.90
48946;DHT22;34999;50.940;3.998;2023-02-01T07:37:20;4.20;99.90
48946;DHT22;34999;50.940;3.998;2023-02-01T07:39:48;4.20;99.90
48946;DHT22;34999;50.940;3.998;2023-02-01T07:42:18;4.30;99.90
48946;DHT22;34999;50.940;3.998;2023-02-01T07:44:47;4.40;99.90
48946;DHT22;34999;50.940;3.998;2023-02-01T07:47:15;4.40;99.90
48946;DHT22;34999;50.940;3.998;2023-02-01T07:49:43;4.40;99.90
48946;DHT22;34999;50.940;3.998;2023-02-01T07:52:12;4.50;99.90
48946;DHT22;34999;50.940;3.998;2023-02-01T07:54:43;4.60;99.90
48946;DHT22;34999;50.940;3.998;2023-02-01T07:57:12;4.70;99.90
48946;DHT22;34999;50.940;3.998;2023-02-01T07:59:42;4.70;99.90
48946;DHT22;34999;50.940;3.998;2023-02-01T08:02:24;4.80;99.90
48946;DHT22;34999;50.940;3.998;2023-02-01T08:04:53;4.90;99.90
48946;DHT22;34999;50.940;3.998;2023-02-01T08:07:21;4.90;99.90
48946;DHT22;34999;50.940;3.998;2023-02-01T08:09:49;5.00;99.90
48946;DHT22;34999;50.940;3.998;2023-02-01T08:12:17;5.10;99.90
48946;DHT22;34999;50.940;3.998;2023-02-01T08:14:47;5.10;99.90
48946;DHT22;34999;50.940;3.998;2023-02-01T08:17:15;5.20;99.90
48946;DHT22;34999;50.940;3.998;2023-02-01T08:19:44;5.10;99.90
48946;DHT22;34999;50.940;3.998;2023-02-01T08:22:12;5.10;99.90
48946;DHT22;34999;50.940;3.998;2023-02-01T08:24:41;5.20;99.90
48946;DHT22;34999;50.940;3.998;2023-02-01T08:27:10;5.20;99.90
48946;DHT22;34999;50.940;3.998;2023-02-01T08:29:39;5.20;99.90
48946;DHT22;34999;50.940;3.998;2023-02-01T08:32:09;5.30;99.90
48946;DHT22;34999;50.940;3.998;2023-02-01T08:34:37;5.30;99.90
48946;DHT22;34999;50.940;3.998;2023-02-01T08:37:05;5.40;99.90
48946;DHT22;34999;50.940;3.998;2023-02-01T08:39:34;5.40;99.90
48946;DHT22;34999;50.940;3.998;2023-02-01T08:42:03;5.50;99.90
48946;DHT22;34999;50.940;3.998;2023-02-01T08:44:48;5.50;99.90
48946;DHT22;34999;50.940;3.998;2023-02-01T08:47:17;5.50;99.90
48946;DHT22;34999;50.940;3.998;2023-02-01T08:49:45;5.50;99.90
48946;DHT22;34999;50.940;3.998;2023-02-01T08:52:14;5.60;99.90
48946;DHT22;34999;50.940;3.998;2023-02-01T08:54:42;5.70;99.90
48946;DHT22;34999;50.940;3.998;2023-02-01T08:57:10;5.80;99.90
48946;DHT22;34999;50.940;3.998;2023-02-01T08:59:39;5.90;99.90
48946;DHT22;34999;50.940;3.998;2023-02-01T09:02:09;5.90;99.90
48946;DHT22;34999;50.940;3.998;2023-02-01T09:04:41;6.00;99.90
48946;DHT22;34999;50.940;3.998;2023-02-01T09:07:10;6.10;99.90
48946;DHT22;34999;50.940;3.998;2023-02-01T09:09:40;6.10;99.90
48946;DHT22;34999;50.940;3.998;2023-02-01T09:12:08;6.20;99.90
48946;DHT22;34999;50.940;3.998;2023-02-01T09:14:36;6.40;99.90
48946;DHT22;34999;50.940;3.998;2023-02-01T09:17:05;6.60;99.90
48946;DHT22;34999;50.940;3.998;2023-02-01T09:19:33;6.70;99.90
48946;DHT22;34999;50.940;3.998;2023-02-01T09:22:03;6.90;99.90
48946;DHT22;34999;50.940;3.998;2023-02-01T09:24:31;7.00;99.90
48946;DHT22;34999;50.940;3.998;2023-02-01T09:26:59;7.20;99.90
48946;DHT22;34999;50.940;3.998;2023-02-01T09:29:28;7.30;99.90
48946;DHT22;34999;50.940;3.998;2023-02-01T09:31:56;7.40;99.90
48946;DHT22;34999;50.940;3.998;2023-02-01T09:34:30;7.50;99.90
48946;DHT22;34999;50.940;3.998;2023-02-01T09:36:58;7.60;99.90
48946;DHT22;34999;50.940;3.998;2023-02-01T09:39:28;7.70;99.90
48946;DHT22;34999;50.940;3.998;2023-02-01T09:42:05;8.00;99.90
48946;DHT22;34999;50.940;3.998;2023-02-01T09:45:06;8.30;99.90
48946;DHT22;34999;50.940;3.998;2023-02-01T09:47:43;8.50;99.90
48946;DHT22;34999;50.940;3.998;2023-02-01T09:50:17;8.60;99.90
48946;DHT22;34999;50.940;3.998;2023-02-01T09:52:54;8.70;99.90
48946;DHT22;34999;50.940;3.998;2023-02-01T09:55:32;8.80;99.90
48946;DHT22;34999;50.940;3.998;2023-02-01T09:58:05;8.80;99.90
48946;DHT22;34999;50.940;3.998;2023-02-01T10:00:37;9.00;99.90
48946;DHT22;34999;50.940;3.998;2023-02-01T10:03:11;9.30;99.90
48946;DHT22;34999;50.940;3.998;2023-02-01T10:06:01;9.60;99.90
48946;DHT22;34999;50.940;3.998;2023-02-01T10:08:40;9.80;99.90
48946;DHT22;34999;50.940;3.998;2023-02-01T10:11:22;10.00;99.90
48946;DHT22;34999;50.940;3.998;2023-02-01T10:14:00;10.30;99.90
48946;DHT22;34999;50.940;3.998;2023-02-01T10:16:39;10.30;99.90
48946;DHT22;34999;50.940;3.998;2023-02-01T10:19:33;10.20;99.90
48946;DHT22;34999;50.940;3.998;2023-02-01T10:22:09;10.10;99.90
48946;DHT22;34999;50.940;3.998;2023-02-01T10:24:41;9.90;99.90
48946;DHT22;34999;50.940;3.998;2023-02-01T10:27:21;9.90;99.90
48946;DHT22;34999;50.940;3.998;2023-02-01T10:29:52;10.10;99.90
48946;DHT22;34999;50.940;3.998;2023-02-01T10:32:23;10.20;99.90
48946;DHT22;34999;50.940;3.998;2023-02-01T10:34:57;10.30;99.90
48946;DHT22;34999;50.940;3.998;2023-02-01T10:37:28;10.40;99.90
48946;DHT22;34999;50.940;3.998;2023-02-01T10:40:00;10.40;99.90
48946;DHT22;34999;50.940;3.998;2023-02-01T10:42:31;10.60;99.90
48946;DHT22;34999;50.940;3.998;2023-02-01T10:45:02;10.70;99.90
48946;DHT22;34999;50.940;3.998;2023-02-01T10:47:30;10.70;99.90
48946;DHT22;34999;50.940;3.998;2023-02-01T10:50:04;11.00;99.90
48946;DHT22;34999;50.940;3.998;2023-02-01T10:52:44;11.40;99.90
48946;DHT22;34999;50.940;3.998;2023-02-01T10:55:38;11.60;99.90
48946;DHT22;34999;50.940;3.998;2023-02-01T10:58:15;11.60;99.90
48946;DHT22;34999;50.940;3.998;2023-02-01T11:00:47;11.70;99.90
48946;DHT22;34999;50.940;3.998;2023-02-01T11:03:36;11.90;99.90
48946;DHT22;34999;50.940;3.998;2023-02-01T11:06:22;12.10;99.90
48946;DHT22;34999;50.940;3.998;2023-02-01T11:08:53;12.30;99.90
48946;DHT22;34999;50.940;3.998;2023-02-01T11:11:22;12.40;99.90
48946;DHT22;34999;50.940;3.998;2023-02-01T11:13:57;12.40;99.90
48946;DHT22;34999;50.940;3.998;2023-02-01T11:16:33;12.20;99.90
48946;DHT22;34999;50.940;3.998;2023-02-01T11:19:02;11.80;99.90
48946;DHT22;34999;50.940;3.998;2023-02-01T11:21:31;11.60;99.90
48946;DHT22;34999;50.940;3.998;2023-02-01T11:24:02;11.10;99.90
48946;DHT22;34999;50.940;3.998;2023-02-01T11:26:31;10.80;99.90
48946;DHT22;34999;50.940;3.998;2023-02-01T11:29:05;10.60;99.90
48946;DHT22;34999;50.940;3.998;2023-02-01T11:31:38;10.60;99.90
48946;DHT22;34999;50.940;3.998;2023-02-01T11:34:12;10.50;99.90
48946;DHT22;34999;50.940;3.998;2023-02-01T11:36:41;10.50;99.90
48946;DHT22;34999;50.940;3.998;2023-02-01T11:39:24;10.50;99.90
48946;DHT22;34999;50.940;3.998;2023-02-01T11:42:00;10.50;99.90
48946;DHT22;34999;50.940;3.998;2023-02-01T11:44:36;10.40;99.90
48946;DHT22;34999;50.940;3.998;2023-02-01T11:47:25;10.40;99.90
48946;DHT22;34999;50.940;3.998;2023-02-01T11:49:55;10.60;99.90
48946;DHT22;34999;50.940;3.998;2023-02-01T11:52:42;11.10;99.90
48946;DHT22;34999;50.940;3.998;2023-02-01T11:55:23;11.60;99.90
48946;DHT22;34999;50.940;3.998;2023-02-01T11:58:06;12.10;99.90
48946;DHT22;34999;50.940;3.998;2023-02-01T12:00:57;12.50;99.90
48946;DHT22;34999;50.940;3.998;2023-02-01T12:03:53;12.60;99.90
48946;DHT22;34999;50.940;3.998;2023-02-01T12:06:34;12.60;99.90
48946;DHT22;34999;50.940;3.998;2023-02-01T12:09:18;12.40;99.90
48946;DHT22;34999;50.940;3.998;2023-02-01T12:11:58;12.50;99.90
48946;DHT22;34999;50.940;3.998;2023-02-01T12:14:41;12.40;99.90
48946;DHT22;34999;50.940;3.998;2023-02-01T12:23:14;12.30;99.90
48946;DHT22;34999;50.940;3.998;2023-02-01T12:25:58;12.40;99.90
48946;DHT22;34999;50.940;3.998;2023-02-01T12:28:53;12.40;99.90
48946;DHT22;34999;50.940;3.998;2023-02-01T12:31:48;12.70;99.90
48946;DHT22;34999;50.940;3.998;2023-02-01T12:34:50;12.80;99.90
48946;DHT22;34999;50.940;3.998;2023-02-01T12:37:33;13.00;99.90
48946;DHT22;34999;50.940;3.998;2023-02-01T12:40:18;12.90;99.90
48946;DHT22;34999;50.940;3.998;2023-02-01T12:42:56;13.00;99.90
48946;DHT22;34999;50.940;3.998;2023-02-01T12:45:31;13.20;99.90
48946;DHT22;34999;50.940;3.998;2023-02-01T12:48:12;13.30;99.90
48946;DHT22;34999;50.940;3.998;2023-02-01T12:50:48;13.40;99.90
48946;DHT22;34999;50.940;3.998;2023-02-01T12:53:23;13.40;99.90
48946;DHT22;34999;50.940;3.998;2023-02-01T12:55:58;13.20;99.90
48946;DHT22;34999;50.940;3.998;2023-02-01T12:58:35;13.30;99.90
48946;DHT22;34999;50.940;3.998;2023-02-01T13:01:08;13.50;99.90
48946;DHT22;34999;50.940;3.998;2023-02-01T13:03:42;13.20;99.90
48946;DHT22;34999;50.940;3.998;2023-02-01T13:06:17;13.10;99.90
48946;DHT22;34999;50.940;3.998;2023-02-01T13:08:50;13.10;99.90
48946;DHT22;34999;50.940;3.998;2023-02-01T13:11:24;13.20;99.90
48946;DHT22;34999;50.940;3.998;2023-02-01T13:13:58;13.40;99.90
48946;DHT22;34999;50.940;3.998;2023-02-01T13:16:30;13.20;99.90
48946;DHT22;34999;50.940;3.998;2023-02-01T13:19:05;13.00;99.90
48946;DHT22;34999;50.940;3.998;2023-02-01T13:21:42;13.00;99.90
48946;DHT22;34999;50.940;3.998;2023-02-01T13:24:26;12.90;99.90
48946;DHT22;34999;50.940;3.998;2023-02-01T13:26:56;12.90;99.90
48946;DHT22;34999;50.940;3.998;2023-02-01T13:29:25;13.10;99.90
48946;DHT22;34999;50.940;3.998;2023-02-01T13:32:11;12.90;99.90
48946;DHT22;34999;50.940;3.998;2023-02-01T13:40:38;12.60;99.90
48946;DHT22;34999;50.940;3.998;2023-02-01T13:43:12;12.50;99.90
48946;DHT22;34999;50.940;3.998;2023-02-01T13:45:46;12.50;99.90
48946;DHT22;34999;50.940;3.998;2023-02-01T13:48:21;12.40;99.90
48946;DHT22;34999;50.940;3.998;2023-02-01T13:50:53;12.20;99.90
48946;DHT22;34999;50.940;3.998;2023-02-01T13:53:27;12.20;99.90
48946;DHT22;34999;50.940;3.998;2023-02-01T13:55:59;12.20;99.90
48946;DHT22;34999;50.940;3.998;2023-02-01T13:58:33;12.30;99.90
48946;DHT22;34999;50.940;3.998;2023-02-01T14:01:32;12.20;99.90
48946;DHT22;34999;50.940;3.998;2023-02-01T14:04:02;12.30;99.90
48946;DHT22;34999;50.940;3.998;2023-02-01T14:06:44;12.40;99.90
48946;DHT22;34999;50.940;3.998;2023-02-01T14:09:33;12.20;99.90
48946;DHT22;34999;50.940;3.998;2023-02-01T14:15:24;11.80;99.90
48946;DHT22;34999;50.940;3.998;2023-02-01T14:17:54;11.70;99.90
48946;DHT22;34999;50.940;3.998;2023-02-01T14:20:44;11.60;99.90
48946;DHT22;34999;50.940;3.998;2023-02-01T14:23:26;11.50;99.90
48946;DHT22;34999;50.940;3.998;2023-02-01T14:26:14;11.50;99.90
48946;DHT22;34999;50.940;3.998;2023-02-01T14:28:59;11.40;99.90
48946;DHT22;34999;50.940;3.998;2023-02-01T14:31:35;11.30;99.90
48946;DHT22;34999;50.940;3.998;2023-02-01T14:34:13;11.20;99.90
48946;DHT22;34999;50.940;3.998;2023-02-01T14:36:47;11.10;99.90
48946;DHT22;34999;50.940;3.998;2023-02-01T14:39:27;11.00;99.90
48946;DHT22;34999;50.940;3.998;2023-02-01T14:42:00;10.90;99.90
48946;DHT22;34999;50.940;3.998;2023-02-01T14:44:35;10.90;99.90
48946;DHT22;34999;50.940;3.998;2023-02-01T14:47:29;10.80;99.90
48946;DHT22;34999;50.940;3.998;2023-02-01T14:50:32;10.70;99.90
48946;DHT22;34999;50.940;3.998;2023-02-01T14:53:20;10.70;99.90
48946;DHT22;34999;50.940;3.998;2023-02-01T14:55:52;10.60;99.90
48946;DHT22;34999;50.940;3.998;2023-02-01T14:58:34;10.50;99.90
48946;DHT22;34999;50.940;3.998;2023-02-01T15:01:06;10.40;99.90
48946;DHT22;34999;50.940;3.998;2023-02-01T15:03:47;10.30;99.90
48946;DHT22;34999;50.940;3.998;2023-02-01T15:06:26;10.20;99.90
48946;DHT22;34999;50.940;3.998;2023-02-01T15:08:58;10.10;99.90
48946;DHT22;34999;50.940;3.998;2023-02-01T15:11:30;10.00;99.90
48946;DHT22;34999;50.940;3.998;2023-02-01T15:14:00;10.00;99.90
48946;DHT22;34999;50.940;3.998;2023-02-01T15:16:29;10.00;99.90
48946;DHT22;34999;50.940;3.998;2023-02-01T15:19:11;9.90;99.90
48946;DHT22;34999;50.940;3.998;2023-02-01T15:21:46;10.00;99.90
48946;DHT22;34999;50.940;3.998;2023-02-01T15:24:20;9.90;99.90
48946;DHT22;34999;50.940;3.998;2023-02-01T15:26:49;9.90;99.90
48946;DHT22;34999;50.940;3.998;2023-02-01T15:29:20;9.80;99.90
48946;DHT22;34999;50.940;3.998;2023-02-01T15:31:50;9.80;99.90
48946;DHT22;34999;50.940;3.998;2023-02-01T15:34:20;9.70;99.90
48946;DHT22;34999;50.940;3.998;2023-02-01T15:36:48;9.70;99.90
48946;DHT22;34999;50.940;3.998;2023-02-01T15:39:29;9.70;99.90
48946;DHT22;34999;50.940;3.998;2023-02-01T15:42:00;9.60;99.90
48946;DHT22;34999;50.940;3.998;2023-02-01T15:44:39;9.70;99.90
48946;DHT22;34999;50.940;3.998;2023-02-01T15:47:14;9.50;99.90
48946;DHT22;34999;50.940;3.998;2023-02-01T15:49:47;9.50;99.90
48946;DHT22;34999;50.940;3.998;2023-02-01T15:52:23;9.50;99.90
48946;DHT22;34999;50.940;3.998;2023-02-01T15:54:55;9.50;99.90
48946;DHT22;34999;50.940;3.998;2023-02-01T15:57:27;9.40;99.90
48946;DHT22;34999;50.940;3.998;2023-02-01T16:00:02;9.30;99.90
48946;DHT22;34999;50.940;3.998;2023-02-01T16:02:34;9.30;99.90
48946;DHT22;34999;50.940;3.998;2023-02-01T16:05:21;9.30;99.90
48946;DHT22;34999;50.940;3.998;2023-02-01T16:07:58;9.20;99.90
48946;DHT22;34999;50.940;3.998;2023-02-01T16:10:32;9.20;99.90
48946;DHT22;34999;50.940;3.998;2023-02-01T16:13:05;9.20;99.90
48946;DHT22;34999;50.940;3.998;2023-02-01T16:15:35;9.10;99.90
48946;DHT22;34999;50.940;3.998;2023-02-01T16:18:04;9.10;99.90
48946;DHT22;34999;50.940;3.998;2023-02-01T16:20:35;9.10;99.90
48946;DHT22;34999;50.940;3.998;2023-02-01T16:23:04;9.10;99.90
48946;DHT22;34999;50.940;3.998;2023-02-01T16:25:32;9.10;99.90
48946;DHT22;34999;50.940;3.998;2023-02-01T16:28:01;9.10;99.90
48946;DHT22;34999;50.940;3.998;2023-02-01T16:30:30;9.00;99.90
48946;DHT22;34999;50.940;3.998;2023-02-01T16:33:01;9.00;99.90
48946;DHT22;34999;50.940;3.998;2023-02-01T16:35:34;9.00;99.90
48946;DHT22;34999;50.940;3.998;2023-02-01T16:38:03;8.90;99.90
48946;DHT22;34999;50.940;3.998;2023-02-01T16:40:35;8.90;99.90
48946;DHT22;34999;50.940;3.998;2023-02-01T16:43:11;8.90;99.90
48946;DHT22;34999;50.940;3.998;2023-02-01T16:45:41;8.90;99.90
48946;DHT22;34999;50.940;3.998;2023-02-01T16:48:17;8.80;99.90
48946;DHT22;34999;50.940;3.998;2023-02-01T16:50:49;8.70;99.90
48946;DHT22;34999;50.940;3.998;2023-02-01T16:53:18;8.70;99.90
48946;DHT22;34999;50.940;3.998;2023-02-01T16:55:48;8.60;99.90
48946;DHT22;34999;50.940;3.998;2023-02-01T16:58:17;8.70;99.90
48946;DHT22;34999;50.940;3.998;2023-02-01T17:00:46;8.70;99.90